Ash Grove, Nebraska
Current Conditions -  °F | °C
As of 9:35 PM on Saturday 22 Nov 2014 (Local Time) from KHDE Reporting Station
Clear Clear  
Wind Chill: 38°   Ceiling: Unl
Heat Index: 42°   Visibility: 10mi
Dew Point: 35°   Wind: 7mph
Humidity: 75%   Direction: 170°S
Pressure: 29.53"   Gusts: NA
Location:  40.1734°N, 98.8989°W
Report Text: KHDE 230335Z AUTO 17006KT 10SM CLR 06/02 A2953 RMK AO2 T00570015
Loading
Personal Weather Stations






























Interactive Weather Map New forecast layout! Learn more

10-Day Weather Forecast

Advertisements
Track Severe Weather on mobile